New Harbor, ME (Heathkit)

43° 52' 34"N, 69° 29' 40"W, Elevation 65 ft.
Eastern Time

Hourly observations for the last 72 hours

Date Time Temperature (°F) Humi-
dity

(%)
Wind
(mph)
Pressure Rain (in)
Air Dew 6 Hour 1 Hr 3 Hr 6 Hr Day
Alt
(in)
Sea
Level

(mb)
Max Min
30 10:00 48 29 48 NE 11 G 19 30.19 1022.4 0.00
30 09:00 47 30 51 NNE 5 G 18 30.19 1022.4 0.00
30 08:00 45 29 50 36 54 NNW 5 G 21 30.16 1021.4 0.00
30 07:00 43 28 55 N 6 G 10 30.15 1021.0 0.00
30 06:00 41 28 59 N 4 G 10 30.15 1021.0 0.00
30 05:00 41 27 56 N 5 G 12 30.10 1019.3 0.00
30 04:00 43 27 53 N 4 G 19 30.09 1019.0 0.00
30 03:00 45 29 53 NNW 8 G 17 30.05 1017.6 0.00
30 02:00 50 32 70 46 50 NNW 6 G 14 30.00 1016.0 0.00
30 01:00 53 35 50 N 11 G 22 29.93 1013.6 0.00
30 00:00 58 37 46 N 7 G 22 29.90 1012.6 0.01
29 23:00 62 37 40 NNW 9 G 23 29.84 1010.5 0.01
29 22:00 65 43 45 NW 7 G 17 29.80 1009.2 0.01
29 21:00 68 47 47 NW 4 G 14 29.73 1006.8 0.01
29 20:00 70 47 76 60 44 NNW 6 G 15 29.70 1005.8 0.01 0.01
29 19:00 69 52 54 SSW 2 G 4 29.66 1004.4 0.01
29 18:00 74 53 48 SW 4 G 10 29.63 1003.4 0.01
29 17:00 75 54 48 SSW 3 G 9 29.64 1003.8 0.01 0.01
29 16:00 73 53 49 SW 3 G 9 29.64 1003.8 0.01
29 15:00 67 53 60 S 4 G 7 29.65 1004.1 0.01 0.01
29 14:00 66 52 69 48 60 SSW 4 G 9 29.67 1004.8 0.00
29 13:00 68 54 60 SSW 6 G 14 29.68 1005.1 0.00
29 12:00 66 54 65 SW 2 G 10 29.72 1006.5 0.00
29 11:00 64 54 69 SSW 6 G 14 29.77 1008.2 0.00
29 10:00 59 51 74 WSW 4 G 14 29.78 1008.5 0.00
29 09:00 53 46 76 SW 4 G 10 29.80 1009.2 0.00
29 08:00 50 48 51 43 93 E 1 G 2 29.83 1010.2 0.00
29 07:00 49 47 93 SSE 1 G 2 29.84 1010.5 0.00
29 06:00 48 46 93 SSW 0 G 2 29.85 1010.9 0.00
29 05:00 49 47 93 NNW 2 G 3 29.85 1010.9 0.00
29 04:00 48 46 93 W 2 G 2 29.84 1010.5 0.00
29 03:00 47 45 93 W 2 G 4 29.86 1011.2 0.00
29 02:00 45 43 51 40 93 WNW 2 G 7 29.86 1011.2 0.00
29 01:00 45 43 92 W 1 G 4 29.85 1010.9 0.00
29 00:00 47 45 92 NNW 2 G 2 29.84 1010.5 0.07
28 23:00 47 45 92 SW 0 G 2 29.85 1010.9 0.07
28 22:00 48 46 91 SE 1 G 2 29.85 1010.9 0.07
28 21:00 49 46 91 SSE 1 G 3 29.84 1010.5 0.07
28 20:00 51 48 56 47 90 SW 1 G 3 29.83 1010.2 0.07
28 19:00 52 49 89 S 1 G 2 29.81 1009.5 0.07
28 18:00 52 48 87 SE 1 G 3 29.81 1009.5 0.07
28 17:00 53 48 82 SSE 2 G 6 29.82 1009.9 0.07
28 16:00 55 49 81 ESE 3 G 4 29.81 1009.5 0.07
28 15:00 55 50 83 ESE 2 G 4 29.83 1010.2 0.07
28 14:00 52 49 53 44 91 ESE 1 G 4 29.83 1010.2 0.03 0.05 0.07
28 13:00 53 51 93 ESE 2 G 4 29.84 1010.5 0.02 0.07
28 12:00 50 48 93 SE 2 G 3 29.84 1010.5 0.01 0.05
28 11:00 51 49 93 S 1 G 2 29.86 1011.2 0.02 0.04
28 10:00 50 48 93 ESE 2 G 3 29.87 1011.5 0.02 0.04
28 09:00 48 46 93 ESE 2 G 4 29.87 1011.5 0.02
28 08:00 48 46 48 40 93 S 1 G 3 29.86 1011.2 0.01 0.02 0.02 0.02
28 07:00 47 45 93 S 2 G 2 29.88 1011.9 0.01
28 06:00 46 44 93 ENE 0 G 2 29.87 1011.5 0.01 0.01
28 05:00 46 44 93 ESE 2 G 3 29.85 1010.9 0.00
28 04:00 45 43 93 SE 2 G 4 29.85 1010.9 0.00
28 03:00 45 43 93 SE 1 G 2 29.84 1010.5 0.00
28 02:00 45 43 47 41 93 ESE 1 G 2 29.85 1010.9 0.00
28 01:00 45 43 93 ESE 1 G 4 29.85 1010.9 0.00
28 00:00 46 44 93 SE 1 G 2 29.85 1010.9 0.01
27 23:00 45 43 93 NNW 0 G 2 29.86 1011.2 0.01
27 22:00 45 43 93 ESE 1 G 3 29.86 1011.2 0.01
27 21:00 45 43 92 SE 3 G 6 29.85 1010.9 0.01
27 20:00 47 45 50 42 92 SSE 2 G 3 29.83 1010.2 0.01
27 19:00 47 45 92 ENE 2 G 4 29.82 1009.9 0.01
27 18:00 48 45 89 SE 2 G 4 29.83 1010.2 0.01
27 17:00 50 47 89 SE 2 G 4 29.83 1010.2 0.01
27 16:00 49 46 90 ESE 2 G 4 29.83 1010.2 0.01
27 15:00 49 46 91 ENE 5 G 8 29.84 1010.5 0.01
27 14:00 50 47 52 44 91 E 4 G 7 29.84 1010.5 0.01
27 13:00 52 50 92 E 3 G 6 29.84 1010.5 0.01
27 12:00 51 49 93 E 3 G 8 29.84 1010.5 0.01
27 11:00 51 49 93 E 5 G 8 29.84 1010.5 0.01

Data generated by WxSolution Version 1.9.0.6, Build 2017.01.14.